sensor_id;sensor_type;location;lat;lon;timestamp;pressure;altitude;pressure_sealevel;temperature;humidity
25130;BME280;13308;50.860;13.664;2023-03-03T06:57:31;97157.25;;;-1.51;100.00
25130;BME280;13308;50.860;13.664;2023-03-03T07:00:16;97158.97;;;-1.47;100.00
25130;BME280;13308;50.860;13.664;2023-03-03T07:02:45;97173.97;;;-1.37;100.00
25130;BME280;13308;50.860;13.664;2023-03-03T07:05:16;97166.56;;;-1.28;100.00
25130;BME280;13308;50.860;13.664;2023-03-03T07:07:42;97175.63;;;-1.12;100.00
25130;BME280;13308;50.860;13.664;2023-03-03T07:10:22;97173.88;;;-0.96;100.00
25130;BME280;13308;50.860;13.664;2023-03-03T07:12:48;97167.34;;;-0.83;100.00
25130;BME280;13308;50.860;13.664;2023-03-03T07:15:20;97174.44;;;-0.79;100.00
25130;BME280;13308;50.860;13.664;2023-03-03T07:17:48;97181.91;;;-0.88;100.00
25130;BME280;13308;50.860;13.664;2023-03-03T07:20:22;97190.03;;;-0.76;100.00
25130;BME280;13308;50.860;13.664;2023-03-03T07:22:49;97189.94;;;-0.55;100.00
25130;BME280;13308;50.860;13.664;2023-03-03T07:25:21;97192.75;;;-0.64;100.00
25130;BME280;13308;50.860;13.664;2023-03-03T07:27:52;97198.50;;;-0.53;100.00
25130;BME280;13308;50.860;13.664;2023-03-03T07:30:28;97209.47;;;-0.26;100.00
25130;BME280;13308;50.860;13.664;2023-03-03T07:32:55;97211.03;;;-0.37;100.00
25130;BME280;13308;50.860;13.664;2023-03-03T07:37:56;97208.91;;;-0.43;100.00
25130;BME280;13308;50.860;13.664;2023-03-03T07:40:33;97216.25;;;-0.32;100.00
25130;BME280;13308;50.860;13.664;2023-03-03T07:42:59;97221.22;;;-0.22;100.00
25130;BME280;13308;50.860;13.664;2023-03-03T07:45:35;97208.81;;;-0.23;100.00
25130;BME280;13308;50.860;13.664;2023-03-03T07:48:24;97210.38;;;-0.22;100.00
25130;BME280;13308;50.860;13.664;2023-03-03T07:50:50;97220.75;;;-0.12;100.00
25130;BME280;13308;50.860;13.664;2023-03-03T07:53:27;97202.47;;;-0.03;100.00
25130;BME280;13308;50.860;13.664;2023-03-03T07:55:53;97217.34;;;0.03;100.00
25130;BME280;13308;50.860;13.664;2023-03-03T07:58:39;97211.25;;;0.18;100.00
25130;BME280;13308;50.860;13.664;2023-03-03T08:01:28;97215.28;;;0.36;100.00
25130;BME280;13308;50.860;13.664;2023-03-03T08:03:56;97211.25;;;0.57;100.00
25130;BME280;13308;50.860;13.664;2023-03-03T08:06:35;97224.69;;;0.66;100.00
25130;BME280;13308;50.860;13.664;2023-03-03T08:11:47;97237.44;;;0.65;100.00
25130;BME280;13308;50.860;13.664;2023-03-03T08:14:15;97238.50;;;0.61;100.00
25130;BME280;13308;50.860;13.664;2023-03-03T08:16:43;97236.91;;;0.60;100.00
25130;BME280;13308;50.860;13.664;2023-03-03T08:19:09;97225.25;;;0.59;100.00
25130;BME280;13308;50.860;13.664;2023-03-03T08:21:36;97224.22;;;0.64;100.00
25130;BME280;13308;50.860;13.664;2023-03-03T08:24:01;97226.63;;;0.53;100.00
25130;BME280;13308;50.860;13.664;2023-03-03T08:26:26;97227.44;;;0.54;100.00
25130;BME280;13308;50.860;13.664;2023-03-03T08:28:52;97237.69;;;0.60;100.00
25130;BME280;13308;50.860;13.664;2023-03-03T08:31:18;97239.97;;;0.58;100.00
25130;BME280;13308;50.860;13.664;2023-03-03T08:33:44;97239.16;;;0.58;100.00
25130;BME280;13308;50.860;13.664;2023-03-03T08:36:10;97232.38;;;0.64;100.00
25130;BME280;13308;50.860;13.664;2023-03-03T08:38:35;97228.75;;;0.72;100.00
25130;BME280;13308;50.860;13.664;2023-03-03T08:41:02;97231.09;;;0.73;100.00
25130;BME280;13308;50.860;13.664;2023-03-03T08:43:27;97221.72;;;0.71;100.00
25130;BME280;13308;50.860;13.664;2023-03-03T08:45:57;97217.88;;;0.72;100.00
25130;BME280;13308;50.860;13.664;2023-03-03T08:48:23;97228.91;;;0.51;100.00
25130;BME280;13308;50.860;13.664;2023-03-03T08:50:49;97232.88;;;0.54;100.00
25130;BME280;13308;50.860;13.664;2023-03-03T08:53:16;97228.97;;;0.67;100.00
25130;BME280;13308;50.860;13.664;2023-03-03T08:55:42;97227.41;;;0.66;100.00
25130;BME280;13308;50.860;13.664;2023-03-03T08:58:07;97221.31;;;0.57;100.00
25130;BME280;13308;50.860;13.664;2023-03-03T09:00:33;97227.00;;;0.40;100.00
25130;BME280;13308;50.860;13.664;2023-03-03T09:02:58;97224.16;;;0.48;100.00
25130;BME280;13308;50.860;13.664;2023-03-03T09:05:24;97233.41;;;0.59;100.00
25130;BME280;13308;50.860;13.664;2023-03-03T09:07:51;97235.75;;;0.73;100.00
25130;BME280;13308;50.860;13.664;2023-03-03T09:10:20;97237.94;;;0.83;100.00
25130;BME280;13308;50.860;13.664;2023-03-03T09:12:50;97242.66;;;0.98;100.00
25130;BME280;13308;50.860;13.664;2023-03-03T09:15:30;97241.75;;;0.94;100.00
25130;BME280;13308;50.860;13.664;2023-03-03T09:18:18;97238.78;;;0.99;100.00
25130;BME280;13308;50.860;13.664;2023-03-03T09:20:54;97237.34;;;1.17;100.00
25130;BME280;13308;50.860;13.664;2023-03-03T09:23:36;97242.16;;;1.08;100.00
25130;BME280;13308;50.860;13.664;2023-03-03T09:26:24;97246.69;;;1.04;100.00
25130;BME280;13308;50.860;13.664;2023-03-03T09:29:16;97247.19;;;0.94;100.00
25130;BME280;13308;50.860;13.664;2023-03-03T09:31:46;97245.75;;;1.12;100.00
25130;BME280;13308;50.860;13.664;2023-03-03T09:34:22;97251.53;;;1.10;100.00
25130;BME280;13308;50.860;13.664;2023-03-03T09:36:49;97255.69;;;1.20;100.00
25130;BME280;13308;50.860;13.664;2023-03-03T09:39:21;97258.66;;;1.15;100.00
25130;BME280;13308;50.860;13.664;2023-03-03T09:48:08;97262.69;;;1.21;100.00
25130;BME280;13308;50.860;13.664;2023-03-03T09:56:20;97278.63;;;0.95;100.00
25130;BME280;13308;50.860;13.664;2023-03-03T09:59:03;97276.22;;;1.05;100.00
25130;BME280;13308;50.860;13.664;2023-03-03T10:01:45;97281.56;;;1.02;100.00
25130;BME280;13308;50.860;13.664;2023-03-03T10:04:49;97289.81;;;1.05;100.00
25130;BME280;13308;50.860;13.664;2023-03-03T10:07:25;97288.06;;;1.13;100.00
25130;BME280;13308;50.860;13.664;2023-03-03T10:15:34;97296.00;;;1.06;100.00
25130;BME280;13308;50.860;13.664;2023-03-03T10:18:11;97290.81;;;1.01;100.00
25130;BME280;13308;50.860;13.664;2023-03-03T10:20:44;97287.00;;;1.02;100.00
25130;BME280;13308;50.860;13.664;2023-03-03T10:23:48;97283.84;;;0.88;100.00
25130;BME280;13308;50.860;13.664;2023-03-03T10:29:02;97273.84;;;1.04;100.00
25130;BME280;13308;50.860;13.664;2023-03-03T10:31:41;97279.28;;;1.04;100.00
25130;BME280;13308;50.860;13.664;2023-03-03T10:50:53;97296.94;;;1.25;100.00
25130;BME280;13308;50.860;13.664;2023-03-03T10:56:37;97303.63;;;1.28;100.00
25130;BME280;13308;50.860;13.664;2023-03-03T11:02:00;97295.09;;;1.14;100.00
25130;BME280;13308;50.860;13.664;2023-03-03T11:07:21;97287.00;;;1.02;100.00
25130;BME280;13308;50.860;13.664;2023-03-03T11:09:59;97283.56;;;1.05;100.00
25130;BME280;13308;50.860;13.664;2023-03-03T11:20:55;97286.19;;;1.29;100.00
25130;BME280;13308;50.860;13.664;2023-03-03T11:26:16;97287.06;;;1.33;100.00
25130;BME280;13308;50.860;13.664;2023-03-03T11:28:58;97281.41;;;1.38;100.00
25130;BME280;13308;50.860;13.664;2023-03-03T11:31:46;97281.91;;;1.43;100.00
25130;BME280;13308;50.860;13.664;2023-03-03T11:37:09;97276.41;;;1.40;100.00
25130;BME280;13308;50.860;13.664;2023-03-03T11:39:37;97284.47;;;1.52;100.00
25130;BME280;13308;50.860;13.664;2023-03-03T11:42:28;97271.03;;;1.28;100.00
25130;BME280;13308;50.860;13.664;2023-03-03T11:45:02;97277.28;;;1.44;100.00
25130;BME280;13308;50.860;13.664;2023-03-03T11:50:40;97263.84;;;1.20;100.00
25130;BME280;13308;50.860;13.664;2023-03-03T11:53:26;97268.50;;;1.35;100.00
25130;BME280;13308;50.860;13.664;2023-03-03T11:55:59;97266.41;;;1.44;100.00
25130;BME280;13308;50.860;13.664;2023-03-03T11:58:31;97269.19;;;1.32;100.00
25130;BME280;13308;50.860;13.664;2023-03-03T12:03:41;97267.19;;;1.44;100.00
25130;BME280;13308;50.860;13.664;2023-03-03T12:08:57;97269.84;;;1.56;100.00
25130;BME280;13308;50.860;13.664;2023-03-03T12:11:35;97266.69;;;1.70;100.00
25130;BME280;13308;50.860;13.664;2023-03-03T12:19:33;97256.00;;;1.61;100.00
25130;BME280;13308;50.860;13.664;2023-03-03T12:22:27;97264.31;;;1.53;100.00
25130;BME280;13308;50.860;13.664;2023-03-03T12:25:28;97268.53;;;1.66;100.00
25130;BME280;13308;50.860;13.664;2023-03-03T12:28:20;97263.91;;;1.66;100.00
25130;BME280;13308;50.860;13.664;2023-03-03T12:31:09;97260.66;;;1.61;100.00
25130;BME280;13308;50.860;13.664;2023-03-03T12:33:50;97260.47;;;1.69;100.00
25130;BME280;13308;50.860;13.664;2023-03-03T12:36:40;97254.94;;;1.50;100.00
25130;BME280;13308;50.860;13.664;2023-03-03T12:39:38;97252.94;;;1.63;100.00
25130;BME280;13308;50.860;13.664;2023-03-03T12:42:09;97250.81;;;1.72;100.00
25130;BME280;13308;50.860;13.664;2023-03-03T12:44:44;97261.34;;;1.58;100.00
25130;BME280;13308;50.860;13.664;2023-03-03T12:58:09;97242.34;;;1.15;100.00
25130;BME280;13308;50.860;13.664;2023-03-03T13:00:51;97241.50;;;1.42;100.00
25130;BME280;13308;50.860;13.664;2023-03-03T13:03:28;97242.91;;;1.51;100.00
25130;BME280;13308;50.860;13.664;2023-03-03T13:06:21;97239.44;;;1.66;100.00
25130;BME280;13308;50.860;13.664;2023-03-03T13:09:01;97236.63;;;1.63;100.00
25130;BME280;13308;50.860;13.664;2023-03-03T13:11:50;97225.59;;;1.56;100.00
25130;BME280;13308;50.860;13.664;2023-03-03T13:14:30;97227.81;;;1.23;100.00
25130;BME280;13308;50.860;13.664;2023-03-03T13:17:19;97225.19;;;1.42;100.00
25130;BME280;13308;50.860;13.664;2023-03-03T13:19:53;97227.16;;;1.41;100.00
25130;BME280;13308;50.860;13.664;2023-03-03T13:22:43;97222.75;;;1.37;100.00
25130;BME280;13308;50.860;13.664;2023-03-03T13:25:40;97223.44;;;1.34;100.00
25130;BME280;13308;50.860;13.664;2023-03-03T13:28:32;97222.03;;;1.24;100.00
25130;BME280;13308;50.860;13.664;2023-03-03T13:31:11;97230.09;;;1.21;100.00
25130;BME280;13308;50.860;13.664;2023-03-03T13:33:43;97228.53;;;1.20;100.00
25130;BME280;13308;50.860;13.664;2023-03-03T13:39:44;97248.16;;;1.29;100.00
25130;BME280;13308;50.860;13.664;2023-03-03T13:42:32;97241.59;;;1.45;100.00
25130;BME280;13308;50.860;13.664;2023-03-03T13:45:06;97231.66;;;1.22;100.00
25130;BME280;13308;50.860;13.664;2023-03-03T13:47:47;97240.66;;;1.38;100.00
25130;BME280;13308;50.860;13.664;2023-03-03T13:50:26;97229.44;;;1.12;100.00
25130;BME280;13308;50.860;13.664;2023-03-03T13:56:10;97226.72;;;1.12;100.00
25130;BME280;13308;50.860;13.664;2023-03-03T13:58:56;97230.88;;;1.21;100.00
25130;BME280;13308;50.860;13.664;2023-03-03T14:01:50;97226.63;;;1.08;100.00
25130;BME280;13308;50.860;13.664;2023-03-03T14:04:30;97233.50;;;1.18;100.00
25130;BME280;13308;50.860;13.664;2023-03-03T14:07:13;97231.91;;;1.17;100.00
25130;BME280;13308;50.860;13.664;2023-03-03T14:09:55;97229.19;;;1.17;100.00
25130;BME280;13308;50.860;13.664;2023-03-03T14:12:34;97222.28;;;1.19;100.00
25130;BME280;13308;50.860;13.664;2023-03-03T14:15:09;97216.69;;;1.28;100.00
25130;BME280;13308;50.860;13.664;2023-03-03T14:20:33;97222.09;;;1.12;100.00
25130;BME280;13308;50.860;13.664;2023-03-03T14:23:07;97214.78;;;1.01;100.00
25130;BME280;13308;50.860;13.664;2023-03-03T14:28:20;97207.97;;;1.07;100.00
25130;BME280;13308;50.860;13.664;2023-03-03T14:30:46;97206.16;;;1.11;100.00
25130;BME280;13308;50.860;13.664;2023-03-03T14:35:43;97201.28;;;1.16;100.00
25130;BME280;13308;50.860;13.664;2023-03-03T14:38:21;97201.44;;;1.23;100.00
25130;BME280;13308;50.860;13.664;2023-03-03T14:40:48;97193.47;;;1.15;100.00
25130;BME280;13308;50.860;13.664;2023-03-03T14:43:36;97189.59;;;1.16;100.00
25130;BME280;13308;50.860;13.664;2023-03-03T14:46:29;97190.50;;;1.35;100.00
25130;BME280;13308;50.860;13.664;2023-03-03T14:48:58;97185.13;;;1.08;100.00
25130;BME280;13308;50.860;13.664;2023-03-03T14:51:45;97184.66;;;1.06;100.00
25130;BME280;13308;50.860;13.664;2023-03-03T14:54:20;97186.97;;;1.04;100.00
25130;BME280;13308;50.860;13.664;2023-03-03T14:57:12;97186.78;;;0.97;100.00
25130;BME280;13308;50.860;13.664;2023-03-03T14:59:40;97188.78;;;1.00;100.00
25130;BME280;13308;50.860;13.664;2023-03-03T15:04:45;97189.91;;;0.99;100.00
25130;BME280;13308;50.860;13.664;2023-03-03T15:07:31;97180.06;;;0.79;100.00
25130;BME280;13308;50.860;13.664;2023-03-03T15:09:58;97180.94;;;0.83;100.00
25130;BME280;13308;50.860;13.664;2023-03-03T15:12:43;97176.34;;;0.99;100.00
25130;BME280;13308;50.860;13.664;2023-03-03T15:26:03;97173.00;;;0.90;100.00
25130;BME280;13308;50.860;13.664;2023-03-03T15:31:38;97176.72;;;1.13;100.00
25130;BME280;13308;50.860;13.664;2023-03-03T15:34:35;97176.97;;;0.92;100.00
25130;BME280;13308;50.860;13.664;2023-03-03T15:39:48;97174.59;;;0.91;100.00
25130;BME280;13308;50.860;13.664;2023-03-03T15:42:41;97173.06;;;0.78;100.00
25130;BME280;13308;50.860;13.664;2023-03-03T15:45:24;97162.38;;;0.69;100.00
25130;BME280;13308;50.860;13.664;2023-03-03T15:50:54;97155.44;;;0.44;100.00
25130;BME280;13308;50.860;13.664;2023-03-03T15:56:24;97155.84;;;0.31;100.00
25130;BME280;13308;50.860;13.664;2023-03-03T15:59:19;97168.03;;;0.37;100.00
25130;BME280;13308;50.860;13.664;2023-03-03T16:04:27;97158.59;;;0.19;100.00
25130;BME280;13308;50.860;13.664;2023-03-03T16:07:06;97164.66;;;0.28;100.00
25130;BME280;13308;50.860;13.664;2023-03-03T16:09:50;97170.97;;;0.32;100.00
25130;BME280;13308;50.860;13.664;2023-03-03T16:12:38;97176.75;;;0.30;100.00
25130;BME280;13308;50.860;13.664;2023-03-03T16:18:10;97176.16;;;0.37;100.00
25130;BME280;13308;50.860;13.664;2023-03-03T16:23:49;97180.03;;;0.36;100.00
25130;BME280;13308;50.860;13.664;2023-03-03T16:31:57;97186.19;;;-0.03;100.00
25130;BME280;13308;50.860;13.664;2023-03-03T16:34:35;97183.16;;;-0.02;100.00
25130;BME280;13308;50.860;13.664;2023-03-03T16:37:21;97182.56;;;-0.07;100.00
25130;BME280;13308;50.860;13.664;2023-03-03T16:40:14;97188.22;;;-0.12;100.00
25130;BME280;13308;50.860;13.664;2023-03-03T16:42:42;97179.88;;;-0.07;100.00
25130;BME280;13308;50.860;13.664;2023-03-03T16:45:21;97186.66;;;-0.13;100.00
25130;BME280;13308;50.860;13.664;2023-03-03T16:50:43;97201.13;;;-0.21;100.00
25130;BME280;13308;50.860;13.664;2023-03-03T16:53:29;97192.88;;;-0.36;100.00
25130;BME280;13308;50.860;13.664;2023-03-03T16:56:17;97189.94;;;-0.31;100.00
25130;BME280;13308;50.860;13.664;2023-03-03T16:59:15;97192.09;;;-0.37;100.00
25130;BME280;13308;50.860;13.664;2023-03-03T17:04:41;97188.94;;;-0.39;100.00
25130;BME280;13308;50.860;13.664;2023-03-03T17:07:27;97184.66;;;-0.52;100.00
25130;BME280;13308;50.860;13.664;2023-03-03T17:10:07;97185.41;;;-0.51;100.00
25130;BME280;13308;50.860;13.664;2023-03-03T17:12:45;97181.94;;;-0.64;100.00
25130;BME280;13308;50.860;13.664;2023-03-03T17:15:37;97190.50;;;-0.62;100.00
25130;BME280;13308;50.860;13.664;2023-03-03T17:18:34;97187.78;;;-0.62;100.00
25130;BME280;13308;50.860;13.664;2023-03-03T17:21:02;97196.13;;;-0.55;100.00
25130;BME280;13308;50.860;13.664;2023-03-03T17:23:53;97194.56;;;-0.56;100.00
25130;BME280;13308;50.860;13.664;2023-03-03T17:26:36;97201.00;;;-0.48;100.00
25130;BME280;13308;50.860;13.664;2023-03-03T17:29:21;97189.38;;;-0.61;100.00
25130;BME280;13308;50.860;13.664;2023-03-03T17:34:47;97204.13;;;-0.70;100.00
25130;BME280;13308;50.860;13.664;2023-03-03T17:37:38;97194.22;;;-0.78;100.00
25130;BME280;13308;50.860;13.664;2023-03-03T17:40:47;97197.03;;;-0.75;100.00
25130;BME280;13308;50.860;13.664;2023-03-03T17:43:17;97193.63;;;-0.84;100.00
25130;BME280;13308;50.860;13.664;2023-03-03T17:45:47;97198.81;;;-0.79;100.00
25130;BME280;13308;50.860;13.664;2023-03-03T17:51:23;97207.53;;;-0.73;100.00
25130;BME280;13308;50.860;13.664;2023-03-03T17:59:23;97201.63;;;-0.75;100.00
25130;BME280;13308;50.860;13.664;2023-03-03T18:02:26;97211.19;;;-0.90;100.00
25130;BME280;13308;50.860;13.664;2023-03-03T18:08:05;97212.97;;;-1.06;100.00
25130;BME280;13308;50.860;13.664;2023-03-03T18:14:00;97218.75;;;-0.95;100.00
25130;BME280;13308;50.860;13.664;2023-03-03T18:16:48;97217.81;;;-0.99;100.00
25130;BME280;13308;50.860;13.664;2023-03-03T18:19:55;97219.00;;;-0.88;100.00
25130;BME280;13308;50.860;13.664;2023-03-03T18:22:30;97217.09;;;-0.88;100.00
25130;BME280;13308;50.860;13.664;2023-03-03T18:25:11;97218.34;;;-0.85;100.00
25130;BME280;13308;50.860;13.664;2023-03-03T18:27:39;97215.72;;;-0.94;100.00
25130;BME280;13308;50.860;13.664;2023-03-03T18:30:18;97216.97;;;-0.91;100.00
25130;BME280;13308;50.860;13.664;2023-03-03T18:35:22;97222.94;;;-0.86;100.00
25130;BME280;13308;50.860;13.664;2023-03-03T18:37:48;97218.97;;;-1.00;100.00
25130;BME280;13308;50.860;13.664;2023-03-03T18:40:20;97218.66;;;-0.87;100.00
25130;BME280;13308;50.860;13.664;2023-03-03T18:42:52;97225.41;;;-0.93;100.00
25130;BME280;13308;50.860;13.664;2023-03-03T18:48:04;97217.59;;;-1.06;100.00
25130;BME280;13308;50.860;13.664;2023-03-03T18:50:32;97225.38;;;-1.05;100.00
25130;BME280;13308;50.860;13.664;2023-03-03T18:55:39;97229.56;;;-0.95;100.00
25130;BME280;13308;50.860;13.664;2023-03-03T19:00:55;97229.56;;;-0.95;100.00
25130;BME280;13308;50.860;13.664;2023-03-03T19:03:26;97228.66;;;-0.99;100.00
25130;BME280;13308;50.860;13.664;2023-03-03T19:05:52;97231.28;;;-0.91;100.00
25130;BME280;13308;50.860;13.664;2023-03-03T19:11:30;97225.28;;;-0.96;100.00
25130;BME280;13308;50.860;13.664;2023-03-03T19:16:41;97225.50;;;-1.01;100.00
25130;BME280;13308;50.860;13.664;2023-03-03T19:19:15;97231.13;;;-1.06;100.00
